sensor_id;sensor_type;location;lat;lon;timestamp;P1;durP1;ratioP1;P2;durP2;ratioP2
40048;SDS011;54524;55.740;37.544;2022-08-19T00:01:03;4;;;2.1;;
40048;SDS011;54524;55.740;37.544;2022-08-19T00:02:03;4;;;2.1;;
40048;SDS011;54524;55.740;37.544;2022-08-19T00:03:04;4.3;;;2.1;;
40048;SDS011;54524;55.740;37.544;2022-08-19T00:04:06;5;;;2.2;;
40048;SDS011;54524;55.740;37.544;2022-08-19T00:05:08;4.9;;;2.2;;
40048;SDS011;54524;55.740;37.544;2022-08-19T00:06:08;4.7;;;2.2;;
40048;SDS011;54524;55.740;37.544;2022-08-19T00:07:10;3.8;;;2.1;;
40048;SDS011;54524;55.740;37.544;2022-08-19T00:08:10;3.8;;;2.1;;
40048;SDS011;54524;55.740;37.544;2022-08-19T00:09:12;4;;;2.1;;
40048;SDS011;54524;55.740;37.544;2022-08-19T00:11:03;7;;;2.4;;
40048;SDS011;54524;55.740;37.544;2022-08-19T00:12:04;7.2;;;2.3;;
40048;SDS011;54524;55.740;37.544;2022-08-19T00:13:04;5.4;;;2.3;;
40048;SDS011;54524;55.740;37.544;2022-08-19T00:14:05;5.3;;;2.4;;
40048;SDS011;54524;55.740;37.544;2022-08-19T00:15:07;5.5;;;2.3;;
40048;SDS011;54524;55.740;37.544;2022-08-19T00:16:11;3.8;;;2.2;;
40048;SDS011;54524;55.740;37.544;2022-08-19T00:17:12;3.8;;;2.2;;
40048;SDS011;54524;55.740;37.544;2022-08-19T00:18:13;3.6;;;2.1;;
40048;SDS011;54524;55.740;37.544;2022-08-19T00:19:14;6.3;;;2.8;;
40048;SDS011;54524;55.740;37.544;2022-08-19T00:21:04;6.2;;;2.8;;
40048;SDS011;54524;55.740;37.544;2022-08-19T00:22:08;6.3;;;2.6;;
40048;SDS011;54524;55.740;37.544;2022-08-19T00:23:09;6.3;;;2.6;;
40048;SDS011;54524;55.740;37.544;2022-08-19T00:24:11;6.3;;;2.6;;
40048;SDS011;54524;55.740;37.544;2022-08-19T00:25:13;8.1;;;2.8;;
40048;SDS011;54524;55.740;37.544;2022-08-19T00:26:14;8.2;;;2.8;;
40048;SDS011;54524;55.740;37.544;2022-08-19T00:27:15;8.4;;;2.8;;
40048;SDS011;54524;55.740;37.544;2022-08-19T00:28:16;4.5;;;2.5;;
40048;SDS011;54524;55.740;37.544;2022-08-19T00:29:17;4.5;;;2.4;;
40048;SDS011;54524;55.740;37.544;2022-08-19T00:31:04;5.2;;;2.4;;
40048;SDS011;54524;55.740;37.544;2022-08-19T00:32:05;5.3;;;2.5;;
40048;SDS011;54524;55.740;37.544;2022-08-19T00:33:05;5.3;;;2.5;;
40048;SDS011;54524;55.740;37.544;2022-08-19T00:34:06;8;;;2.8;;
40048;SDS011;54524;55.740;37.544;2022-08-19T00:35:07;8;;;2.8;;
40048;SDS011;54524;55.740;37.544;2022-08-19T00:36:08;8;;;2.7;;
40048;SDS011;54524;55.740;37.544;2022-08-19T00:37:10;8.1;;;2.7;;
40048;SDS011;54524;55.740;37.544;2022-08-19T00:38:10;7.1;;;2.7;;
40048;SDS011;54524;55.740;37.544;2022-08-19T00:39:11;7;;;2.7;;
40048;SDS011;54524;55.740;37.544;2022-08-19T00:41:03;5.5;;;2.5;;
40048;SDS011;54524;55.740;37.544;2022-08-19T00:42:04;5.7;;;2.6;;
40048;SDS011;54524;55.740;37.544;2022-08-19T00:43:08;5.6;;;2.6;;
40048;SDS011;54524;55.740;37.544;2022-08-19T00:44:09;10.8;;;3;;
40048;SDS011;54524;55.740;37.544;2022-08-19T00:45:11;10.8;;;3;;
40048;SDS011;54524;55.740;37.544;2022-08-19T00:46:12;10.9;;;3;;
40048;SDS011;54524;55.740;37.544;2022-08-19T00:47:13;5.6;;;2.9;;
40048;SDS011;54524;55.740;37.544;2022-08-19T00:48:14;5.6;;;2.9;;
40048;SDS011;54524;55.740;37.544;2022-08-19T00:49:16;6.1;;;2.9;;
40048;SDS011;54524;55.740;37.544;2022-08-19T00:51:03;10;;;3.1;;
40048;SDS011;54524;55.740;37.544;2022-08-19T00:52:05;10.2;;;3.1;;
40048;SDS011;54524;55.740;37.544;2022-08-19T00:53:06;7.5;;;3;;
40048;SDS011;54524;55.740;37.544;2022-08-19T00:54:07;8.7;;;3.1;;
40048;SDS011;54524;55.740;37.544;2022-08-19T00:55:09;8.6;;;3;;
40048;SDS011;54524;55.740;37.544;2022-08-19T00:56:11;6.2;;;2.8;;
40048;SDS011;54524;55.740;37.544;2022-08-19T00:57:14;6.3;;;2.8;;
40048;SDS011;54524;55.740;37.544;2022-08-19T00:58:17;6.3;;;2.9;;
40048;SDS011;54524;55.740;37.544;2022-08-19T00:59:18;6.2;;;3.1;;
40048;SDS011;54524;55.740;37.544;2022-08-19T01:01:03;6.2;;;3.1;;
40048;SDS011;54524;55.740;37.544;2022-08-19T01:02:04;6.3;;;3.1;;
40048;SDS011;54524;55.740;37.544;2022-08-19T01:03:06;7.7;;;2.9;;
40048;SDS011;54524;55.740;37.544;2022-08-19T01:04:07;7.8;;;2.9;;
40048;SDS011;54524;55.740;37.544;2022-08-19T01:05:08;7.3;;;3;;
40048;SDS011;54524;55.740;37.544;2022-08-19T01:06:10;6.7;;;3.1;;
40048;SDS011;54524;55.740;37.544;2022-08-19T01:07:11;6.5;;;3.1;;
40048;SDS011;54524;55.740;37.544;2022-08-19T01:08:12;6.6;;;3.1;;
40048;SDS011;54524;55.740;37.544;2022-08-19T01:09:14;8.4;;;3.2;;
40048;SDS011;54524;55.740;37.544;2022-08-19T01:11:03;9.2;;;3.3;;
40048;SDS011;54524;55.740;37.544;2022-08-19T01:12:04;9.2;;;3.3;;
40048;SDS011;54524;55.740;37.544;2022-08-19T01:13:05;7.8;;;3.1;;
40048;SDS011;54524;55.740;37.544;2022-08-19T01:14:05;8.1;;;3.2;;
40048;SDS011;54524;55.740;37.544;2022-08-19T01:15:06;8.3;;;3.2;;
40048;SDS011;54524;55.740;37.544;2022-08-19T01:16:08;7.1;;;2.9;;
40048;SDS011;54524;55.740;37.544;2022-08-19T01:17:10;5.6;;;2.8;;
40048;SDS011;54524;55.740;37.544;2022-08-19T01:18:12;5.6;;;2.8;;
40048;SDS011;54524;55.740;37.544;2022-08-19T01:19:15;8.1;;;3.3;;
40048;SDS011;54524;55.740;37.544;2022-08-19T01:21:05;8;;;3.2;;
40048;SDS011;54524;55.740;37.544;2022-08-19T01:22:10;5.6;;;3;;
40048;SDS011;54524;55.740;37.544;2022-08-19T01:23:13;6.4;;;3;;
40048;SDS011;54524;55.740;37.544;2022-08-19T01:24:14;6.4;;;3;;
40048;SDS011;54524;55.740;37.544;2022-08-19T01:25:16;8.5;;;3.1;;
40048;SDS011;54524;55.740;37.544;2022-08-19T01:26:18;8.5;;;3.1;;
40048;SDS011;54524;55.740;37.544;2022-08-19T01:27:20;8;;;3;;
40048;SDS011;54524;55.740;37.544;2022-08-19T01:28:23;7.2;;;3.3;;
40048;SDS011;54524;55.740;37.544;2022-08-19T01:29:25;7.2;;;3.3;;
40048;SDS011;54524;55.740;37.544;2022-08-19T01:31:03;8.6;;;3.2;;
40048;SDS011;54524;55.740;37.544;2022-08-19T01:32:04;8.8;;;3.3;;
40048;SDS011;54524;55.740;37.544;2022-08-19T01:33:06;8.5;;;3.3;;
40048;SDS011;54524;55.740;37.544;2022-08-19T01:34:06;8;;;3.2;;
40048;SDS011;54524;55.740;37.544;2022-08-19T01:35:07;7.9;;;3.2;;
40048;SDS011;54524;55.740;37.544;2022-08-19T01:36:10;7.8;;;3.2;;
40048;SDS011;54524;55.740;37.544;2022-08-19T01:37:11;10.4;;;3.1;;
40048;SDS011;54524;55.740;37.544;2022-08-19T01:38:19;10.4;;;3.1;;
40048;SDS011;54524;55.740;37.544;2022-08-19T01:39:21;10.3;;;3.1;;
40048;SDS011;54524;55.740;37.544;2022-08-19T01:41:03;6.6;;;2.8;;
40048;SDS011;54524;55.740;37.544;2022-08-19T01:42:04;6.5;;;2.8;;
40048;SDS011;54524;55.740;37.544;2022-08-19T01:43:05;7;;;3.2;;
40048;SDS011;54524;55.740;37.544;2022-08-19T01:44:06;6.5;;;3.2;;
40048;SDS011;54524;55.740;37.544;2022-08-19T01:45:08;6.6;;;3.2;;
40048;SDS011;54524;55.740;37.544;2022-08-19T01:46:09;0;;;0;;
40048;SDS011;54524;55.740;37.544;2022-08-19T01:47:11;8;;;3.2;;
40048;SDS011;54524;55.740;37.544;2022-08-19T01:48:12;8.8;;;3.2;;
40048;SDS011;54524;55.740;37.544;2022-08-19T01:49:13;10.6;;;3.5;;
40048;SDS011;54524;55.740;37.544;2022-08-19T01:51:03;6.30;;;1.20;;
40048;SDS011;54524;55.740;37.544;2022-08-19T01:52:05;6.4;;;3.2;;
40048;SDS011;54524;55.740;37.544;2022-08-19T01:53:06;6.1;;;3.2;;
40048;SDS011;54524;55.740;37.544;2022-08-19T01:54:07;6;;;3.1;;
40048;SDS011;54524;55.740;37.544;2022-08-19T01:55:09;6.9;;;3.2;;
40048;SDS011;54524;55.740;37.544;2022-08-19T01:56:10;7;;;3.2;;
40048;SDS011;54524;55.740;37.544;2022-08-19T01:57:12;7.9;;;3.1;;
40048;SDS011;54524;55.740;37.544;2022-08-19T01:58:14;7.7;;;3.1;;
40048;SDS011;54524;55.740;37.544;2022-08-19T01:59:17;7.1;;;3.1;;
40048;SDS011;54524;55.740;37.544;2022-08-19T02:01:03;6.30;;;1.20;;
40048;SDS011;54524;55.740;37.544;2022-08-19T02:02:04;5.7;;;3.2;;
40048;SDS011;54524;55.740;37.544;2022-08-19T02:03:07;6.1;;;3.3;;
40048;SDS011;54524;55.740;37.544;2022-08-19T02:04:09;6.1;;;3.2;;
40048;SDS011;54524;55.740;37.544;2022-08-19T02:05:09;6.2;;;3.3;;
40048;SDS011;54524;55.740;37.544;2022-08-19T02:06:10;6.2;;;3.3;;
40048;SDS011;54524;55.740;37.544;2022-08-19T02:07:11;6.6;;;3.3;;
40048;SDS011;54524;55.740;37.544;2022-08-19T02:08:12;10.1;;;3.6;;
40048;SDS011;54524;55.740;37.544;2022-08-19T02:09:13;10.2;;;3.6;;
40048;SDS011;54524;55.740;37.544;2022-08-19T02:11:02;12.9;;;3.8;;
40048;SDS011;54524;55.740;37.544;2022-08-19T02:12:03;13;;;3.8;;
40048;SDS011;54524;55.740;37.544;2022-08-19T02:13:04;13.3;;;3.9;;
40048;SDS011;54524;55.740;37.544;2022-08-19T02:14:05;9;;;3.6;;
40048;SDS011;54524;55.740;37.544;2022-08-19T02:15:07;9.9;;;3.6;;
40048;SDS011;54524;55.740;37.544;2022-08-19T02:16:07;10.9;;;3.7;;
40048;SDS011;54524;55.740;37.544;2022-08-19T02:17:08;11.3;;;3.7;;
40048;SDS011;54524;55.740;37.544;2022-08-19T02:18:09;11.2;;;3.7;;
40048;SDS011;54524;55.740;37.544;2022-08-19T02:19:10;11.1;;;3.7;;
40048;SDS011;54524;55.740;37.544;2022-08-19T02:21:03;10.2;;;3.6;;
40048;SDS011;54524;55.740;37.544;2022-08-19T02:22:03;10.1;;;3.6;;
40048;SDS011;54524;55.740;37.544;2022-08-19T02:23:04;8;;;3.8;;
40048;SDS011;54524;55.740;37.544;2022-08-19T02:24:05;8;;;3.8;;
40048;SDS011;54524;55.740;37.544;2022-08-19T02:25:06;7.9;;;3.7;;
40048;SDS011;54524;55.740;37.544;2022-08-19T02:26:06;7.9;;;3.8;;
40048;SDS011;54524;55.740;37.544;2022-08-19T02:27:07;9.5;;;3.5;;
40048;SDS011;54524;55.740;37.544;2022-08-19T02:28:08;9.6;;;3.5;;
40048;SDS011;54524;55.740;37.544;2022-08-19T02:29:08;9.7;;;3.5;;
40048;SDS011;54524;55.740;37.544;2022-08-19T02:31:02;9.4;;;3.9;;
40048;SDS011;54524;55.740;37.544;2022-08-19T02:32:03;9.3;;;3.8;;
40048;SDS011;54524;55.740;37.544;2022-08-19T02:33:04;9;;;3.6;;
40048;SDS011;54524;55.740;37.544;2022-08-19T02:34:05;8.7;;;3.6;;
40048;SDS011;54524;55.740;37.544;2022-08-19T02:35:06;9;;;3.6;;
40048;SDS011;54524;55.740;37.544;2022-08-19T02:36:07;8.2;;;3.5;;
40048;SDS011;54524;55.740;37.544;2022-08-19T02:37:08;8.2;;;3.6;;
40048;SDS011;54524;55.740;37.544;2022-08-19T02:39:25;8;;;3.5;;
40048;SDS011;54524;55.740;37.544;2022-08-19T02:41:03;7.9;;;3.5;;
40048;SDS011;54524;55.740;37.544;2022-08-19T02:42:04;8.5;;;3.7;;
40048;SDS011;54524;55.740;37.544;2022-08-19T02:43:06;8.5;;;3.7;;
40048;SDS011;54524;55.740;37.544;2022-08-19T02:44:07;8;;;3.7;;
40048;SDS011;54524;55.740;37.544;2022-08-19T02:45:09;12;;;3.7;;
40048;SDS011;54524;55.740;37.544;2022-08-19T02:46:11;11.9;;;3.7;;
40048;SDS011;54524;55.740;37.544;2022-08-19T02:47:12;11.9;;;3.7;;
40048;SDS011;54524;55.740;37.544;2022-08-19T02:48:15;9;;;3.7;;
40048;SDS011;54524;55.740;37.544;2022-08-19T02:49:17;9.2;;;3.7;;
40048;SDS011;54524;55.740;37.544;2022-08-19T02:51:03;10.6;;;3.7;;
40048;SDS011;54524;55.740;37.544;2022-08-19T02:52:03;10.6;;;3.7;;
40048;SDS011;54524;55.740;37.544;2022-08-19T02:53:04;9;;;3.8;;
40048;SDS011;54524;55.740;37.544;2022-08-19T02:54:05;9.3;;;3.7;;
40048;SDS011;54524;55.740;37.544;2022-08-19T02:55:07;9.1;;;3.6;;
40048;SDS011;54524;55.740;37.544;2022-08-19T02:56:07;9.2;;;3.5;;
40048;SDS011;54524;55.740;37.544;2022-08-19T02:57:09;7.6;;;3.6;;
40048;SDS011;54524;55.740;37.544;2022-08-19T02:58:09;7.5;;;3.7;;
40048;SDS011;54524;55.740;37.544;2022-08-19T02:59:10;6.9;;;3.6;;
40048;SDS011;54524;55.740;37.544;2022-08-19T03:01:03;8.5;;;3.5;;
40048;SDS011;54524;55.740;37.544;2022-08-19T03:02:04;8.2;;;3.5;;
40048;SDS011;54524;55.740;37.544;2022-08-19T03:03:04;9.8;;;3.9;;
40048;SDS011;54524;55.740;37.544;2022-08-19T03:04:05;9.3;;;3.8;;
40048;SDS011;54524;55.740;37.544;2022-08-19T03:05:07;9.3;;;3.8;;
40048;SDS011;54524;55.740;37.544;2022-08-19T03:06:10;9.7;;;3.9;;
40048;SDS011;54524;55.740;37.544;2022-08-19T03:07:12;9.3;;;3.9;;
40048;SDS011;54524;55.740;37.544;2022-08-19T03:08:13;9.3;;;3.9;;
40048;SDS011;54524;55.740;37.544;2022-08-19T03:09:14;6.5;;;3.3;;
40048;SDS011;54524;55.740;37.544;2022-08-19T03:11:02;6.30;;;1.20;;
40048;SDS011;54524;55.740;37.544;2022-08-19T03:12:03;7.6;;;3.3;;
40048;SDS011;54524;55.740;37.544;2022-08-19T03:13:04;9.8;;;3.3;;
40048;SDS011;54524;55.740;37.544;2022-08-19T03:14:06;9.6;;;3.2;;
40048;SDS011;54524;55.740;37.544;2022-08-19T03:15:07;9.8;;;3.3;;
40048;SDS011;54524;55.740;37.544;2022-08-19T03:16:08;10.8;;;3.5;;
40048;SDS011;54524;55.740;37.544;2022-08-19T03:17:09;10.1;;;3.5;;
40048;SDS011;54524;55.740;37.544;2022-08-19T03:18:10;10;;;3.5;;
40048;SDS011;54524;55.740;37.544;2022-08-19T03:19:11;6.4;;;3.4;;
40048;SDS011;54524;55.740;37.544;2022-08-19T03:21:03;6.6;;;3.4;;
40048;SDS011;54524;55.740;37.544;2022-08-19T03:22:04;9.4;;;3.8;;
40048;SDS011;54524;55.740;37.544;2022-08-19T03:23:04;9.4;;;3.8;;
40048;SDS011;54524;55.740;37.544;2022-08-19T03:24:06;9.2;;;3.7;;
40048;SDS011;54524;55.740;37.544;2022-08-19T03:25:07;9.1;;;3.5;;
40048;SDS011;54524;55.740;37.544;2022-08-19T03:26:08;8.8;;;3.4;;
40048;SDS011;54524;55.740;37.544;2022-08-19T03:27:09;9;;;3.4;;
40048;SDS011;54524;55.740;37.544;2022-08-19T03:28:10;7.8;;;3.3;;
40048;SDS011;54524;55.740;37.544;2022-08-19T03:29:12;5.9;;;3.2;;
40048;SDS011;54524;55.740;37.544;2022-08-19T03:31:05;7.9;;;3.2;;
40048;SDS011;54524;55.740;37.544;2022-08-19T03:32:06;7.8;;;3.2;;
40048;SDS011;54524;55.740;37.544;2022-08-19T03:33:07;7.4;;;3.1;;
40048;SDS011;54524;55.740;37.544;2022-08-19T03:34:08;10.4;;;3.4;;
40048;SDS011;54524;55.740;37.544;2022-08-19T03:35:08;10.1;;;3.4;;
40048;SDS011;54524;55.740;37.544;2022-08-19T03:36:10;10.2;;;3.4;;
40048;SDS011;54524;55.740;37.544;2022-08-19T03:37:11;8.4;;;3.1;;
40048;SDS011;54524;55.740;37.544;2022-08-19T03:38:12;8.1;;;3.1;;
40048;SDS011;54524;55.740;37.544;2022-08-19T03:39:13;8.5;;;3.1;;
40048;SDS011;54524;55.740;37.544;2022-08-19T03:41:04;5.7;;;3;;
40048;SDS011;54524;55.740;37.544;2022-08-19T03:42:06;6.6;;;3;;
40048;SDS011;54524;55.740;37.544;2022-08-19T03:43:07;7.4;;;3.2;;
40048;SDS011;54524;55.740;37.544;2022-08-19T03:44:07;7.1;;;3.2;;
40048;SDS011;54524;55.740;37.544;2022-08-19T03:45:08;7.1;;;3.1;;
40048;SDS011;54524;55.740;37.544;2022-08-19T03:46:11;7.2;;;3.2;;
40048;SDS011;54524;55.740;37.544;2022-08-19T03:47:12;7.1;;;3.2;;
40048;SDS011;54524;55.740;37.544;2022-08-19T03:48:16;6.9;;;3.1;;
40048;SDS011;54524;55.740;37.544;2022-08-19T03:49:17;6.3;;;2.7;;
40048;SDS011;54524;55.740;37.544;2022-08-19T03:51:03;6.7;;;2.8;;
40048;SDS011;54524;55.740;37.544;2022-08-19T03:52:04;10.3;;;3.3;;
40048;SDS011;54524;55.740;37.544;2022-08-19T03:53:07;10.4;;;3.3;;
40048;SDS011;54524;55.740;37.544;2022-08-19T03:54:10;10.4;;;3.3;;
40048;SDS011;54524;55.740;37.544;2022-08-19T03:55:11;6.6;;;3.1;;
40048;SDS011;54524;55.740;37.544;2022-08-19T03:56:12;6.7;;;3.1;;
40048;SDS011;54524;55.740;37.544;2022-08-19T03:57:13;6.5;;;3.1;;
40048;SDS011;54524;55.740;37.544;2022-08-19T03:58:14;8.4;;;3.2;;
40048;SDS011;54524;55.740;37.544;2022-08-19T03:59:15;7.3;;;3.1;;
40048;SDS011;54524;55.740;37.544;2022-08-19T04:01:06;7;;;3.1;;
40048;SDS011;54524;55.740;37.544;2022-08-19T04:02:09;15.2;;;3.6;;
40048;SDS011;54524;55.740;37.544;2022-08-19T04:03:10;14.5;;;3.6;;
40048;SDS011;54524;55.740;37.544;2022-08-19T04:04:10;14.5;;;3.6;;
40048;SDS011;54524;55.740;37.544;2022-08-19T04:05:11;9;;;3.5;;
40048;SDS011;54524;55.740;37.544;2022-08-19T04:06:13;8.9;;;3.5;;
40048;SDS011;54524;55.740;37.544;2022-08-19T04:07:15;8.9;;;3.5;;
40048;SDS011;54524;55.740;37.544;2022-08-19T04:08:16;5.5;;;2.9;;
40048;SDS011;54524;55.740;37.544;2022-08-19T04:09:20;5.6;;;2.9;;
40048;SDS011;54524;55.740;37.544;2022-08-19T04:11:05;5.6;;;2.9;;
40048;SDS011;54524;55.740;37.544;2022-08-19T04:12:07;7.3;;;3.4;;
40048;SDS011;54524;55.740;37.544;2022-08-19T04:13:07;7.3;;;3.4;;
40048;SDS011;54524;55.740;37.544;2022-08-19T04:14:09;7.2;;;3.4;;
40048;SDS011;54524;55.740;37.544;2022-08-19T04:15:10;8.8;;;3.5;;
40048;SDS011;54524;55.740;37.544;2022-08-19T04:16:11;8.5;;;3.4;;
40048;SDS011;54524;55.740;37.544;2022-08-19T04:17:12;8.5;;;3.4;;
40048;SDS011;54524;55.740;37.544;2022-08-19T04:18:14;9.6;;;3.4;;
40048;SDS011;54524;55.740;37.544;2022-08-19T04:19:14;9.3;;;3.3;;
40048;SDS011;54524;55.740;37.544;2022-08-19T04:21:03;11.9;;;3.4;;
40048;SDS011;54524;55.740;37.544;2022-08-19T04:22:04;11.5;;;3.4;;
40048;SDS011;54524;55.740;37.544;2022-08-19T04:23:04;11.2;;;3.3;;
40048;SDS011;54524;55.740;37.544;2022-08-19T04:24:05;11.5;;;3.6;;
40048;SDS011;54524;55.740;37.544;2022-08-19T04:25:06;11.5;;;3.6;;
40048;SDS011;54524;55.740;37.544;2022-08-19T04:26:06;11.7;;;3.7;;
40048;SDS011;54524;55.740;37.544;2022-08-19T04:27:08;7;;;3.2;;
40048;SDS011;54524;55.740;37.544;2022-08-19T04:28:09;6.6;;;3.2;;
40048;SDS011;54524;55.740;37.544;2022-08-19T04:29:11;6.7;;;3.3;;
40048;SDS011;54524;55.740;37.544;2022-08-19T04:31:03;7.4;;;3.3;;
40048;SDS011;54524;55.740;37.544;2022-08-19T04:32:04;7.3;;;3.3;;
40048;SDS011;54524;55.740;37.544;2022-08-19T04:33:05;8.7;;;3.7;;
40048;SDS011;54524;55.740;37.544;2022-08-19T04:34:07;8.9;;;3.7;;
40048;SDS011;54524;55.740;37.544;2022-08-19T04:35:08;9.5;;;3.8;;
40048;SDS011;54524;55.740;37.544;2022-08-19T04:36:10;10.4;;;4.1;;
40048;SDS011;54524;55.740;37.544;2022-08-19T04:37:16;10.4;;;4.1;;
40048;SDS011;54524;55.740;37.544;2022-08-19T04:38:18;10.4;;;4.2;;
40048;SDS011;54524;55.740;37.544;2022-08-19T04:39:21;8;;;3.6;;
40048;SDS011;54524;55.740;37.544;2022-08-19T04:41:03;8;;;3.6;;
40048;SDS011;54524;55.740;37.544;2022-08-19T04:44:11;7.8;;;3.7;;
40048;SDS011;54524;55.740;37.544;2022-08-19T04:45:13;6.3;;;3.4;;
40048;SDS011;54524;55.740;37.544;2022-08-19T04:46:14;6.3;;;3.3;;
40048;SDS011;54524;55.740;37.544;2022-08-19T04:47:14;6.2;;;3.3;;
40048;SDS011;54524;55.740;37.544;2022-08-19T04:48:15;10;;;3.6;;
40048;SDS011;54524;55.740;37.544;2022-08-19T04:49:16;10;;;3.6;;
40048;SDS011;54524;55.740;37.544;2022-08-19T04:51:05;10.1;;;3.6;;
40048;SDS011;54524;55.740;37.544;2022-08-19T04:52:07;10.5;;;3.6;;
40048;SDS011;54524;55.740;37.544;2022-08-19T04:53:08;10;;;3.6;;
40048;SDS011;54524;55.740;37.544;2022-08-19T04:54:09;10.3;;;3.6;;
40048;SDS011;54524;55.740;37.544;2022-08-19T04:55:10;9.5;;;3;;
40048;SDS011;54524;55.740;37.544;2022-08-19T04:56:12;9.5;;;3;;
40048;SDS011;54524;55.740;37.544;2022-08-19T04:57:14;9.3;;;3;;
40048;SDS011;54524;55.740;37.544;2022-08-19T04:58:15;6.6;;;3;;
40048;SDS011;54524;55.740;37.544;2022-08-19T04:59:16;6.4;;;3;;
40048;SDS011;54524;55.740;37.544;2022-08-19T05:01:02;8.5;;;3.2;;
40048;SDS011;54524;55.740;37.544;2022-08-19T05:02:03;9;;;3.2;;
40048;SDS011;54524;55.740;37.544;2022-08-19T05:03:04;9;;;3.2;;
40048;SDS011;54524;55.740;37.544;2022-08-19T05:04:05;10.3;;;3.1;;
40048;SDS011;54524;55.740;37.544;2022-08-19T05:05:06;10.4;;;3.1;;
40048;SDS011;54524;55.740;37.544;2022-08-19T05:06:07;10.3;;;3.1;;
40048;SDS011;54524;55.740;37.544;2022-08-19T05:07:09;10.2;;;3.4;;
40048;SDS011;54524;55.740;37.544;2022-08-19T05:08:10;9.4;;;3.4;;
40048;SDS011;54524;55.740;37.544;2022-08-19T05:09:10;9.5;;;3.4;;
40048;SDS011;54524;55.740;37.544;2022-08-19T05:11:07;7.6;;;3.2;;
40048;SDS011;54524;55.740;37.544;2022-08-19T05:12:08;7.6;;;3.1;;
40048;SDS011;54524;55.740;37.544;2022-08-19T05:13:08;5.6;;;3;;
40048;SDS011;54524;55.740;37.544;2022-08-19T05:14:10;5.6;;;3;;
40048;SDS011;54524;55.740;37.544;2022-08-19T05:15:12;5.4;;;3;;
40048;SDS011;54524;55.740;37.544;2022-08-19T05:16:14;7.7;;;2.9;;
40048;SDS011;54524;55.740;37.544;2022-08-19T05:17:15;7.6;;;2.9;;
40048;SDS011;54524;55.740;37.544;2022-08-19T05:18:15;7.1;;;2.9;;
40048;SDS011;54524;55.740;37.544;2022-08-19T05:21:05;8;;;2.9;;
40048;SDS011;54524;55.740;37.544;2022-08-19T05:24:13;8.3;;;3.1;;
40048;SDS011;54524;55.740;37.544;2022-08-19T05:25:15;6.6;;;3;;
40048;SDS011;54524;55.740;37.544;2022-08-19T05:26:18;6.5;;;2.9;;
40048;SDS011;54524;55.740;37.544;2022-08-19T05:27:19;6.3;;;2.9;;
40048;SDS011;54524;55.740;37.544;2022-08-19T05:28:20;7.8;;;3.4;;
40048;SDS011;54524;55.740;37.544;2022-08-19T05:29:21;8.3;;;3.4;;
40048;SDS011;54524;55.740;37.544;2022-08-19T05:31:03;8.4;;;2.8;;
40048;SDS011;54524;55.740;37.544;2022-08-19T05:32:04;8.4;;;2.8;;
40048;SDS011;54524;55.740;37.544;2022-08-19T05:33:08;8.4;;;2.8;;
40048;SDS011;54524;55.740;37.544;2022-08-19T05:34:10;8.4;;;3;;
40048;SDS011;54524;55.740;37.544;2022-08-19T05:35:10;8.3;;;3;;
40048;SDS011;54524;55.740;37.544;2022-08-19T05:36:11;8.2;;;3;;
40048;SDS011;54524;55.740;37.544;2022-08-19T05:37:13;11.5;;;3.1;;
40048;SDS011;54524;55.740;37.544;2022-08-19T05:38:13;10.6;;;3.1;;
40048;SDS011;54524;55.740;37.544;2022-08-19T05:39:17;10.6;;;3.1;;
40048;SDS011;54524;55.740;37.544;2022-08-19T05:41:06;7.2;;;3;;
40048;SDS011;54524;55.740;37.544;2022-08-19T05:42:07;7.1;;;3;;
40048;SDS011;54524;55.740;37.544;2022-08-19T05:43:08;6.4;;;3;;
40048;SDS011;54524;55.740;37.544;2022-08-19T05:44:09;8.5;;;3.2;;
40048;SDS011;54524;55.740;37.544;2022-08-19T05:45:10;8.4;;;3.1;;
40048;SDS011;54524;55.740;37.544;2022-08-19T05:46:15;8.3;;;3.1;;
40048;SDS011;54524;55.740;37.544;2022-08-19T05:47:17;9;;;3;;
40048;SDS011;54524;55.740;37.544;2022-08-19T05:48:19;8.7;;;3;;
40048;SDS011;54524;55.740;37.544;2022-08-19T05:49:21;6.5;;;3;;
40048;SDS011;54524;55.740;37.544;2022-08-19T05:51:03;6.4;;;3.1;;
40048;SDS011;54524;55.740;37.544;2022-08-19T05:52:04;7.7;;;3.1;;
40048;SDS011;54524;55.740;37.544;2022-08-19T05:53:05;10.3;;;3.1;;
40048;SDS011;54524;55.740;37.544;2022-08-19T05:54:06;11.1;;;3.1;;
40048;SDS011;54524;55.740;37.544;2022-08-19T05:55:07;10.4;;;3.1;;
40048;SDS011;54524;55.740;37.544;2022-08-19T05:56:08;7.4;;;2.8;;
40048;SDS011;54524;55.740;37.544;2022-08-19T05:57:10;7.5;;;2.9;;
40048;SDS011;54524;55.740;37.544;2022-08-19T05:58:10;7.6;;;3;;
40048;SDS011;54524;55.740;37.544;2022-08-19T05:59:11;5.5;;;2.7;;
40048;SDS011;54524;55.740;37.544;2022-08-19T06:01:04;6;;;2.7;;
40048;SDS011;54524;55.740;37.544;2022-08-19T06:02:09;9;;;3.1;;
40048;SDS011;54524;55.740;37.544;2022-08-19T06:03:09;8.5;;;3.1;;
40048;SDS011;54524;55.740;37.544;2022-08-19T06:04:10;7.4;;;3.1;;
40048;SDS011;54524;55.740;37.544;2022-08-19T06:05:11;7.9;;;3;;
40048;SDS011;54524;55.740;37.544;2022-08-19T06:06:12;9.2;;;3;;
40048;SDS011;54524;55.740;37.544;2022-08-19T06:07:14;9.3;;;3.1;;
40048;SDS011;54524;55.740;37.544;2022-08-19T06:08:15;9.5;;;3;;
40048;SDS011;54524;55.740;37.544;2022-08-19T06:09:18;9.3;;;3;;
40048;SDS011;54524;55.740;37.544;2022-08-19T06:11:19;5.7;;;2.7;;
40048;SDS011;54524;55.740;37.544;2022-08-19T06:12:20;5.7;;;2.6;;
40048;SDS011;54524;55.740;37.544;2022-08-19T06:13:26;5.9;;;2.7;;
40048;SDS011;54524;55.740;37.544;2022-08-19T06:14:28;7.5;;;2.7;;
40048;SDS011;54524;55.740;37.544;2022-08-19T06:15:28;7.7;;;2.8;;
40048;SDS011;54524;55.740;37.544;2022-08-19T06:16:29;6.3;;;2.7;;
40048;SDS011;54524;55.740;37.544;2022-08-19T06:17:34;9.7;;;2.8;;
40048;SDS011;54524;55.740;37.544;2022-08-19T06:18:35;9;;;2.7;;
40048;SDS011;54524;55.740;37.544;2022-08-19T06:19:35;8.9;;;2.7;;
40048;SDS011;54524;55.740;37.544;2022-08-19T06:21:03;6.1;;;3;;
40048;SDS011;54524;55.740;37.544;2022-08-19T06:22:04;6;;;3;;
40048;SDS011;54524;55.740;37.544;2022-08-19T06:23:05;10.2;;;2.9;;
40048;SDS011;54524;55.740;37.544;2022-08-19T06:24:07;10.1;;;2.8;;
40048;SDS011;54524;55.740;37.544;2022-08-19T06:25:08;10;;;2.8;;
40048;SDS011;54524;55.740;37.544;2022-08-19T06:26:11;7.7;;;2.6;;
40048;SDS011;54524;55.740;37.544;2022-08-19T06:27:12;7.6;;;2.6;;
40048;SDS011;54524;55.740;37.544;2022-08-19T06:28:13;7.4;;;2.6;;
40048;SDS011;54524;55.740;37.544;2022-08-19T06:29:14;6.3;;;2.9;;
40048;SDS011;54524;55.740;37.544;2022-08-19T06:31:05;6.30;;;1.20;;
40048;SDS011;54524;55.740;37.544;2022-08-19T06:32:06;7.3;;;2.8;;
40048;SDS011;54524;55.740;37.544;2022-08-19T06:33:06;7.7;;;2.8;;
40048;SDS011;54524;55.740;37.544;2022-08-19T06:34:07;7.7;;;2.8;;
40048;SDS011;54524;55.740;37.544;2022-08-19T06:35:08;6;;;2.6;;
40048;SDS011;54524;55.740;37.544;2022-08-19T06:36:15;5.9;;;2.6;;
40048;SDS011;54524;55.740;37.544;2022-08-19T06:37:17;6.2;;;2.7;;
40048;SDS011;54524;55.740;37.544;2022-08-19T06:38:17;6.5;;;2.7;;
40048;SDS011;54524;55.740;37.544;2022-08-19T06:39:19;6.5;;;2.7;;
40048;SDS011;54524;55.740;37.544;2022-08-19T06:41:03;5.2;;;2.6;;
40048;SDS011;54524;55.740;37.544;2022-08-19T06:42:05;8.6;;;2.8;;
40048;SDS011;54524;55.740;37.544;2022-08-19T06:43:07;8.4;;;2.8;;
40048;SDS011;54524;55.740;37.544;2022-08-19T06:44:07;8.3;;;2.8;;
40048;SDS011;54524;55.740;37.544;2022-08-19T06:45:08;6.3;;;2.9;;
40048;SDS011;54524;55.740;37.544;2022-08-19T06:46:10;6.3;;;2.9;;
40048;SDS011;54524;55.740;37.544;2022-08-19T06:47:13;6.4;;;2.9;;
40048;SDS011;54524;55.740;37.544;2022-08-19T06:48:14;7.3;;;2.6;;
40048;SDS011;54524;55.740;37.544;2022-08-19T06:49:15;7.5;;;2.6;;
40048;SDS011;54524;55.740;37.544;2022-08-19T06:51:02;11.8;;;2.8;;
40048;SDS011;54524;55.740;37.544;2022-08-19T06:52:04;11.8;;;2.8;;
40048;SDS011;54524;55.740;37.544;2022-08-19T06:53:05;12.1;;;2.8;;
40048;SDS011;54524;55.740;37.544;2022-08-19T06:54:05;4.7;;;2.7;;
40048;SDS011;54524;55.740;37.544;2022-08-19T06:55:06;4.6;;;2.7;;
40048;SDS011;54524;55.740;37.544;2022-08-19T06:56:07;4.9;;;2.7;;